Time;durP1;ratioP1;P1;durP2;ratioP2;P2;SDS_P1;SDS_P2;PMS_P1;PMS_P2;Temp;Humidity;BMP_temperature;BMP_pressure;BME280_temperature;BME280_humidity;BME280_pressure;Samples;Min_cycle;Max_cycle;Signal;HPM_P1;HPM_P2
2021/07/25 00:04:01;;;;;;;0.20;0.10;;;;;;;;;;10336727;28;20057;-24
2021/07/25 00:09:08;;;;;;;0.00;0.00;;;;;;;;;;10335121;28;20128;-26
2021/07/25 00:14:10;;;;;;;0.00;0.00;;;;;;;;;;10332026;28;20074;-25
2021/07/25 00:19:13;;;;;;;0.00;0.00;;;;;;;;;;10333003;28;20070;-24
2021/07/25 00:24:23;;;;;;;0.00;0.00;;;;;;;;;;10325877;28;20056;-24
2021/07/25 00:29:28;;;;;;;0.10;0.00;;;;;;;;;;10335085;28;20046;-25
2021/07/25 00:34:31;;;;;;;0.00;0.00;;;;;;;;;;10335224;28;20046;-25
2021/07/25 00:39:35;;;;;;;0.00;0.00;;;;;;;;;;10332501;28;20488;-26
2021/07/25 00:44:38;;;;;;;0.10;0.10;;;;;;;;;;10332002;28;20054;-24
2021/07/25 00:49:40;;;;;;;0.00;0.00;;;;;;;;;;10338051;28;20050;-26
2021/07/25 00:54:44;;;;;;;0.10;0.10;;;;;;;;;;10334557;28;20050;-24
2021/07/25 00:59:47;;;;;;;0.30;0.10;;;;;;;;;;10333612;28;20765;-24
2021/07/25 01:04:55;;;;;;;0.00;0.00;;;;;;;;;;10319481;28;20061;-25
2021/07/25 01:10:02;;;;;;;0.05;0.05;;;;;;;;;;10316109;28;20039;-25
2021/07/25 01:15:05;;;;;;;0.25;0.10;;;;;;;;;;10315063;28;20524;-25
2021/07/25 01:20:10;;;;;;;0.10;0.10;;;;;;;;;;10319256;28;20038;-24
2021/07/25 01:25:14;;;;;;;0.10;0.10;;;;;;;;;;10319246;28;20042;-24
2021/07/25 01:30:18;;;;;;;0.10;0.10;;;;;;;;;;10336319;28;20068;-25
2021/07/25 01:35:22;;;;;;;0.28;0.10;;;;;;;;;;10321384;28;20053;-25
2021/07/25 01:40:26;;;;;;;0.00;0.00;;;;;;;;;;10322613;28;20058;-24
2021/07/25 01:45:30;;;;;;;0.00;0.00;;;;;;;;;;10325688;28;20140;-24
2021/07/25 01:50:34;;;;;;;0.00;0.00;;;;;;;;;;10322347;28;20046;-24
2021/07/25 01:55:38;;;;;;;0.08;0.08;;;;;;;;;;10324840;28;20093;-25
2021/07/25 02:00:40;;;;;;;0.05;0.05;;;;;;;;;;10326371;28;20070;-25
2021/07/25 02:05:45;;;;;;;0.00;0.00;;;;;;;;;;10321548;28;20046;-23
2021/07/25 02:10:48;;;;;;;0.00;0.00;;;;;;;;;;10325901;28;20043;-24
2021/07/25 02:15:51;;;;;;;0.00;0.00;;;;;;;;;;10325227;28;20038;-24
2021/07/25 02:20:55;;;;;;;0.05;0.05;;;;;;;;;;10328225;28;20070;-24
2021/07/25 02:25:58;;;;;;;0.10;0.10;;;;;;;;;;10327005;28;20042;-25
2021/07/25 02:31:00;;;;;;;0.10;0.10;;;;;;;;;;10324487;28;20050;-25
2021/07/25 02:36:05;;;;;;;0.10;0.10;;;;;;;;;;10326084;28;20057;-24
2021/07/25 02:41:07;;;;;;;0.00;0.00;;;;;;;;;;10331202;28;20038;-24
2021/07/25 02:46:10;;;;;;;0.00;0.00;;;;;;;;;;10328612;28;20042;-24
2021/07/25 02:51:14;;;;;;;0.00;0.00;;;;;;;;;;10329228;28;20049;-26
2021/07/25 02:56:17;;;;;;;0.00;0.00;;;;;;;;;;10331230;28;20069;-24
2021/07/25 03:01:19;;;;;;;0.00;0.00;;;;;;;;;;10320911;28;20073;-24
2021/07/25 03:06:24;;;;;;;0.00;0.00;;;;;;;;;;10312328;28;20046;-24
2021/07/25 03:11:26;;;;;;;0.10;0.10;;;;;;;;;;10316861;28;20050;-25
2021/07/25 03:16:29;;;;;;;0.00;0.00;;;;;;;;;;10321278;28;20046;-24
2021/07/25 03:21:33;;;;;;;0.10;0.10;;;;;;;;;;10315052;28;20044;-26
2021/07/25 03:26:36;;;;;;;0.00;0.00;;;;;;;;;;10311484;28;20336;-25
2021/07/25 03:31:38;;;;;;;0.00;0.00;;;;;;;;;;10317497;28;20057;-26
2021/07/25 03:36:43;;;;;;;0.00;0.00;;;;;;;;;;10316978;28;20495;-25
2021/07/25 03:41:47;;;;;;;0.05;0.00;;;;;;;;;;10320235;28;20795;-24
2021/07/25 03:46:50;;;;;;;0.00;0.00;;;;;;;;;;10329040;28;20039;-24
2021/07/25 03:51:54;;;;;;;0.00;0.00;;;;;;;;;;10327326;28;20388;-25
2021/07/25 03:56:56;;;;;;;0.00;0.00;;;;;;;;;;10328836;28;20050;-24
2021/07/25 04:01:59;;;;;;;0.10;0.10;;;;;;;;;;10330052;28;20072;-25
2021/07/25 04:07:03;;;;;;;0.10;0.10;;;;;;;;;;10329034;28;20446;-24
2021/07/25 04:12:06;;;;;;;0.00;0.00;;;;;;;;;;10326490;28;20042;-24
2021/07/25 04:17:09;;;;;;;0.00;0.00;;;;;;;;;;10332922;28;20053;-24
2021/07/25 04:22:13;;;;;;;0.00;0.00;;;;;;;;;;10329542;28;20117;-24
2021/07/25 04:27:16;;;;;;;0.00;0.00;;;;;;;;;;10334112;28;20044;-25
2021/07/25 04:32:21;;;;;;;0.00;0.00;;;;;;;;;;10333991;28;20068;-24
2021/07/25 04:37:27;;;;;;;0.00;0.00;;;;;;;;;;10335741;28;20053;-25
2021/07/25 04:42:33;;;;;;;0.00;0.00;;;;;;;;;;10321657;28;20049;-25
2021/07/25 04:47:39;;;;;;;0.00;0.00;;;;;;;;;;10333299;28;20078;-25
2021/07/25 04:52:44;;;;;;;0.00;0.00;;;;;;;;;;10335718;28;20049;-25
2021/07/25 04:57:46;;;;;;;0.00;0.00;;;;;;;;;;10335614;28;20045;-24
2021/07/25 05:02:55;;;;;;;0.00;0.00;;;;;;;;;;10327808;28;20044;-24
2021/07/25 05:08:01;;;;;;;0.00;0.00;;;;;;;;;;10320456;28;20504;-24
2021/07/25 05:13:06;;;;;;;0.00;0.00;;;;;;;;;;10318237;28;20042;-25
2021/07/25 05:18:13;;;;;;;0.00;0.00;;;;;;;;;;10320029;28;20047;-24
2021/07/25 05:23:21;;;;;;;0.00;0.00;;;;;;;;;;10318865;28;20737;-25
2021/07/25 05:28:26;;;;;;;0.00;0.00;;;;;;;;;;10316869;28;20038;-25
2021/07/25 05:33:28;;;;;;;0.00;0.00;;;;;;;;;;10318380;28;20063;-24
2021/07/25 05:38:33;;;;;;;0.00;0.00;;;;;;;;;;10320652;28;20070;-24
2021/07/25 05:43:36;;;;;;;0.00;0.00;;;;;;;;;;10325012;28;20049;-25
2021/07/25 05:48:39;;;;;;;0.05;0.00;;;;;;;;;;10317473;28;20117;-26
2021/07/25 05:53:43;;;;;;;0.00;0.00;;;;;;;;;;10324756;28;20061;-25
2021/07/25 05:58:46;;;;;;;0.00;0.00;;;;;;;;;;10323159;28;20053;-25
2021/07/25 06:03:49;;;;;;;0.00;0.00;;;;;;;;;;10326832;28;20046;-25
2021/07/25 06:08:54;;;;;;;0.05;0.00;;;;;;;;;;10324762;28;20039;-24
2021/07/25 06:13:57;;;;;;;0.00;0.00;;;;;;;;;;10323302;28;20046;-24
2021/07/25 06:18:59;;;;;;;0.00;0.00;;;;;;;;;;10319190;28;20056;-27
2021/07/25 06:24:04;;;;;;;0.00;0.00;;;;;;;;;;10322502;28;20092;-24
2021/07/25 06:29:10;;;;;;;0.00;0.00;;;;;;;;;;10322443;28;20046;-28
2021/07/25 06:34:12;;;;;;;0.00;0.00;;;;;;;;;;10325575;28;20387;-29
2021/07/25 06:39:16;;;;;;;0.00;0.00;;;;;;;;;;10329471;28;20042;-28
2021/07/25 06:44:19;;;;;;;0.10;0.05;;;;;;;;;;10324338;28;20427;-29
2021/07/25 06:49:25;;;;;;;0.00;0.00;;;;;;;;;;10326780;28;20383;-28
2021/07/25 06:54:29;;;;;;;0.00;0.00;;;;;;;;;;10322058;28;20046;-30
2021/07/25 06:59:32;;;;;;;0.00;0.00;;;;;;;;;;10313465;28;20045;-28
2021/07/25 07:04:38;;;;;;;0.00;0.00;;;;;;;;;;10313486;28;20074;-29
2021/07/25 07:09:42;;;;;;;0.00;0.00;;;;;;;;;;10312720;28;20569;-28
2021/07/25 07:14:45;;;;;;;0.00;0.00;;;;;;;;;;10318741;28;20039;-28
2021/07/25 07:19:47;;;;;;;0.00;0.00;;;;;;;;;;10321938;28;20053;-28
2021/07/25 07:24:52;;;;;;;0.00;0.00;;;;;;;;;;10324792;28;20133;-28
2021/07/25 07:29:55;;;;;;;0.00;0.00;;;;;;;;;;10327244;28;20049;-28
2021/07/25 07:34:58;;;;;;;0.10;0.00;;;;;;;;;;10321443;28;20050;-28
2021/07/25 07:40:03;;;;;;;0.00;0.00;;;;;;;;;;10328137;28;20050;-28
2021/07/25 07:45:06;;;;;;;0.00;0.00;;;;;;;;;;10320509;28;20100;-28
2021/07/25 07:50:10;;;;;;;0.00;0.00;;;;;;;;;;10327460;28;20042;-28
2021/07/25 07:55:14;;;;;;;0.40;0.10;;;;;;;;;;10325762;28;20411;-29
2021/07/25 08:00:17;;;;;;;0.00;0.00;;;;;;;;;;10322359;28;20035;-28
2021/07/25 08:05:20;;;;;;;0.00;0.00;;;;;;;;;;10331165;28;20053;-28
2021/07/25 08:10:24;;;;;;;0.00;0.00;;;;;;;;;;10330744;28;20046;-29
2021/07/25 08:15:27;;;;;;;0.00;0.00;;;;;;;;;;10327013;28;20566;-28
2021/07/25 08:20:30;;;;;;;0.00;0.00;;;;;;;;;;10333574;28;20044;-28
2021/07/25 08:25:34;;;;;;;0.00;0.00;;;;;;;;;;10332213;28;20137;-28
2021/07/25 08:30:37;;;;;;;0.13;0.00;;;;;;;;;;10329775;28;20458;-27
2021/07/25 08:35:39;;;;;;;0.00;0.00;;;;;;;;;;10332487;28;20038;-28
2021/07/25 08:40:51;;;;;;;0.00;0.00;;;;;;;;;;10331758;28;20038;-28
2021/07/25 08:45:54;;;;;;;0.00;0.00;;;;;;;;;;10330455;28;20104;-28
2021/07/25 08:51:02;;;;;;;0.22;0.00;;;;;;;;;;10316028;28;20072;-28
2021/07/25 08:56:07;;;;;;;0.20;0.00;;;;;;;;;;10318433;28;20743;-28
2021/07/25 09:01:11;;;;;;;0.00;0.00;;;;;;;;;;10323690;28;20039;-28
2021/07/25 09:06:14;;;;;;;0.00;0.00;;;;;;;;;;10324258;28;20047;-28
2021/07/25 09:11:19;;;;;;;0.00;0.00;;;;;;;;;;10321388;28;20035;-28
2021/07/25 09:16:21;;;;;;;0.00;0.00;;;;;;;;;;10320276;28;20058;-29
2021/07/25 09:21:43;;;;;;;0.00;0.00;;;;;;;;;;10321709;28;20046;-28
2021/07/25 09:26:45;;;;;;;;;;;;;;;;;;10323310;28;20344;-29
2021/07/25 09:31:50;;;;;;;0.00;0.00;;;;;;;;;;10323527;28;19925;-28
2021/07/25 09:37:06;;;;;;;0.00;0.00;;;;;;;;;;10325374;28;20125;-28
2021/07/25 09:42:10;;;;;;;0.00;0.00;;;;;;;;;;10326318;28;20038;-28
2021/07/25 09:47:26;;;;;;;0.00;0.00;;;;;;;;;;10320787;28;20042;-30
2021/07/25 09:52:32;;;;;;;0.00;0.00;;;;;;;;;;10328231;28;20491;-29
2021/07/25 09:57:36;;;;;;;0.00;0.00;;;;;;;;;;10330291;28;20141;-29
2021/07/25 10:02:43;;;;;;;0.00;0.00;;;;;;;;;;10323015;28;20506;-29
2021/07/25 10:07:47;;;;;;;0.00;0.00;;;;;;;;;;10329521;28;20049;-28
2021/07/25 10:12:51;;;;;;;0.00;0.00;;;;;;;;;;10327665;28;20042;-30
2021/07/25 10:17:55;;;;;;;0.00;0.00;;;;;;;;;;10329764;28;20490;-27
2021/07/25 10:23:01;;;;;;;0.00;0.00;;;;;;;;;;10326019;28;20125;-27
2021/07/25 10:28:05;;;;;;;0.00;0.00;;;;;;;;;;10331154;28;20583;-27
2021/07/25 10:33:10;;;;;;;0.10;0.00;;;;;;;;;;10316334;28;20057;-28
2021/07/25 10:38:14;;;;;;;0.00;0.00;;;;;;;;;;10313507;28;20050;-29
2021/07/25 10:43:20;;;;;;;0.00;0.00;;;;;;;;;;10311524;28;20038;-28
2021/07/25 10:48:25;;;;;;;0.10;0.00;;;;;;;;;;10311069;28;20041;-28
2021/07/25 10:53:27;;;;;;;0.00;0.00;;;;;;;;;;10320653;28;20042;-28
2021/07/25 10:58:50;;;;;;;0.00;0.00;;;;;;;;;;10322242;28;20065;-29
2021/07/25 11:03:54;;;;;;;0.00;0.00;;;;;;;;;;10323288;28;20045;-26
2021/07/25 11:08:57;;;;;;;0.00;0.00;;;;;;;;;;10326957;28;20043;-26
2021/07/25 11:14:01;;;;;;;0.00;0.00;;;;;;;;;;10331649;28;20835;-27
2021/07/25 11:24:38;;;;;;;0.00;0.00;;;;;;;;;;10629216;27;20617;-27
2021/07/25 11:29:45;;;;;;;0.00;0.00;;;;;;;;;;10629176;27;20153;-27
2021/07/25 11:34:48;;;;;;;0.00;0.00;;;;;;;;;;10618438;27;20481;-27
2021/07/25 11:39:54;;;;;;;0.00;0.00;;;;;;;;;;10625527;27;20892;-28
2021/07/25 11:45:01;;;;;;;0.00;0.00;;;;;;;;;;10615283;27;20075;-27
2021/07/25 11:50:04;;;;;;;0.00;0.00;;;;;;;;;;10614417;27;20040;-27
2021/07/25 11:55:08;;;;;;;0.00;0.00;;;;;;;;;;10609472;27;20047;-28
2021/07/25 12:00:12;;;;;;;0.00;0.00;;;;;;;;;;10617281;27;20040;-27
2021/07/25 12:05:15;;;;;;;0.00;0.00;;;;;;;;;;10618053;27;20047;-26
2021/07/25 12:10:34;;;;;;;0.00;0.00;;;;;;;;;;10606421;27;20035;-27
2021/07/25 12:15:38;;;;;;;0.00;0.00;;;;;;;;;;10610156;27;20071;-27
2021/07/25 12:20:41;;;;;;;0.00;0.00;;;;;;;;;;10610965;27;20067;-27
2021/07/25 12:25:53;;;;;;;0.00;0.00;;;;;;;;;;10615371;27;20047;-27
2021/07/25 12:30:57;;;;;;;0.00;0.00;;;;;;;;;;10614381;27;20039;-26
2021/07/25 12:36:09;;;;;;;0.10;0.00;;;;;;;;;;10583441;27;20064;-27
2021/07/25 12:41:13;;;;;;;0.00;0.00;;;;;;;;;;10575514;27;20057;-27
2021/07/25 12:46:28;;;;;;;0.00;0.00;;;;;;;;;;10585683;27;20054;-27
2021/07/25 12:51:41;;;;;;;0.00;0.00;;;;;;;;;;10589199;27;20039;-27
2021/07/25 12:56:45;;;;;;;0.00;0.00;;;;;;;;;;10604944;27;20051;-26
2021/07/25 13:07:10;;;;;;;0.00;0.00;;;;;;;;;;10490215;28;20122;-27
2021/07/25 13:12:14;;;;;;;0.00;0.00;;;;;;;;;;10503323;28;21520;-29
2021/07/25 13:17:18;;;;;;;0.00;0.00;;;;;;;;;;10497675;28;20040;-28
2021/07/25 13:22:21;;;;;;;0.00;0.00;;;;;;;;;;10494531;28;20773;-27
2021/07/25 13:27:26;;;;;;;0.10;0.00;;;;;;;;;;10497858;28;20053;-27
2021/07/25 13:32:28;;;;;;;0.00;0.00;;;;;;;;;;10492734;28;20044;-27
2021/07/25 13:37:31;;;;;;;0.00;0.00;;;;;;;;;;10496088;28;20044;-27
2021/07/25 13:42:35;;;;;;;0.00;0.00;;;;;;;;;;10493135;28;20078;-27
2021/07/25 13:47:38;;;;;;;0.00;0.00;;;;;;;;;;10484681;28;20044;-27
2021/07/25 13:52:41;;;;;;;0.55;0.00;;;;;;;;;;10487991;28;20052;-27
2021/07/25 13:57:46;;;;;;;0.10;0.00;;;;;;;;;;10488350;28;20405;-27
2021/07/25 14:02:48;;;;;;;0.00;0.00;;;;;;;;;;10483801;28;20043;-27
2021/07/25 14:07:52;;;;;;;0.00;0.00;;;;;;;;;;10480526;28;20041;-28
2021/07/25 14:12:56;;;;;;;0.00;0.00;;;;;;;;;;10482685;28;20051;-26
2021/07/25 14:18:02;;;;;;;0.00;0.00;;;;;;;;;;10478148;28;20048;-27
2021/07/25 14:23:05;;;;;;;0.00;0.00;;;;;;;;;;10491031;28;20071;-27
2021/07/25 14:28:09;;;;;;;0.00;0.00;;;;;;;;;;10505377;28;20053;-27
2021/07/25 14:33:11;;;;;;;0.00;0.00;;;;;;;;;;10509013;28;20044;-26
2021/07/25 14:38:14;;;;;;;0.00;0.00;;;;;;;;;;10505603;28;20044;-27
2021/07/25 14:43:18;;;;;;;0.00;0.00;;;;;;;;;;10499084;28;20051;-27
2021/07/25 14:48:21;;;;;;;0.00;0.00;;;;;;;;;;10504236;28;20482;-27
2021/07/25 14:53:23;;;;;;;0.08;0.00;;;;;;;;;;10499672;28;20045;-27
2021/07/25 14:58:30;;;;;;;0.00;0.00;;;;;;;;;;10496761;28;20040;-27
2021/07/25 15:03:33;;;;;;;0.00;0.00;;;;;;;;;;10500068;28;20852;-27
2021/07/25 15:08:35;;;;;;;0.00;0.00;;;;;;;;;;10502173;28;20067;-27
2021/07/25 15:13:40;;;;;;;0.00;0.00;;;;;;;;;;10494648;28;20044;-27
2021/07/25 15:18:43;;;;;;;0.00;0.00;;;;;;;;;;10495861;28;20043;-27
2021/07/25 15:23:45;;;;;;;0.00;0.00;;;;;;;;;;10490358;28;20057;-27
2021/07/25 15:28:49;;;;;;;0.05;0.00;;;;;;;;;;10490531;28;20982;-27
2021/07/25 15:33:52;;;;;;;0.00;0.00;;;;;;;;;;10488441;28;20047;-27
2021/07/25 15:38:55;;;;;;;0.00;0.00;;;;;;;;;;10487615;28;20450;-27
2021/07/25 15:43:59;;;;;;;0.00;0.00;;;;;;;;;;10483334;28;20047;-27
2021/07/25 15:49:02;;;;;;;0.00;0.00;;;;;;;;;;10485099;28;20405;-27
2021/07/25 15:54:04;;;;;;;0.00;0.00;;;;;;;;;;10482716;28;20048;-27
2021/07/25 15:59:08;;;;;;;0.00;0.00;;;;;;;;;;10477196;28;20489;-28
2021/07/25 16:04:11;;;;;;;0.00;0.00;;;;;;;;;;10479503;28;20036;-27
2021/07/25 16:09:13;;;;;;;0.00;0.00;;;;;;;;;;10481204;28;20481;-27
2021/07/25 16:14:18;;;;;;;0.00;0.00;;;;;;;;;;10500089;28;20040;-27
2021/07/25 16:19:20;;;;;;;0.00;0.00;;;;;;;;;;10503354;28;20534;-29
2021/07/25 16:24:23;;;;;;;0.00;0.00;;;;;;;;;;10506257;28;20051;-29
2021/07/25 16:29:27;;;;;;;0.00;0.00;;;;;;;;;;10511235;28;20400;-28
2021/07/25 16:34:30;;;;;;;0.00;0.00;;;;;;;;;;10500425;28;20034;-30
2021/07/25 16:39:33;;;;;;;0.13;0.00;;;;;;;;;;10503133;28;20072;-29
2021/07/25 16:44:37;;;;;;;0.00;0.00;;;;;;;;;;10501357;28;20041;-30
2021/07/25 16:49:39;;;;;;;0.30;0.00;;;;;;;;;;10493324;28;20044;-29
2021/07/25 16:54:42;;;;;;;0.20;0.10;;;;;;;;;;10499561;28;20055;-29
2021/07/25 16:59:46;;;;;;;0.00;0.00;;;;;;;;;;10500715;28;20048;-29
2021/07/25 17:10:36;;;;;;;0.00;0.00;;;;;;;;;;10494328;28;20043;-29
2021/07/25 17:15:40;;;;;;;0.00;0.00;;;;;;;;;;10493439;28;20036;-32
2021/07/25 17:20:43;;;;;;;0.00;0.00;;;;;;;;;;10496504;28;20117;-29
2021/07/25 17:25:46;;;;;;;0.00;0.00;;;;;;;;;;10491253;28;20048;-29
2021/07/25 17:30:50;;;;;;;0.00;0.00;;;;;;;;;;10467810;28;20040;-29
2021/07/25 17:35:53;;;;;;;0.00;0.00;;;;;;;;;;10473587;28;20029;-29
2021/07/25 17:41:00;;;;;;;0.28;0.10;;;;;;;;;;10478666;28;20114;-29
2021/07/25 17:46:05;;;;;;;0.00;0.00;;;;;;;;;;10479581;28;20509;-29
2021/07/25 17:51:08;;;;;;;0.00;0.00;;;;;;;;;;10481788;28;20131;-31
2021/07/25 17:56:11;;;;;;;0.00;0.00;;;;;;;;;;10473735;28;20448;-30
2021/07/25 18:01:16;;;;;;;0.00;0.00;;;;;;;;;;10472786;28;20045;-29
2021/07/25 18:06:19;;;;;;;0.00;0.00;;;;;;;;;;10485115;28;20041;-30
2021/07/25 18:11:22;;;;;;;0.15;0.00;;;;;;;;;;10481726;28;20048;-29
2021/07/25 18:16:26;;;;;;;0.40;0.00;;;;;;;;;;10482258;28;20047;-30
2021/07/25 18:21:29;;;;;;;0.35;0.00;;;;;;;;;;10467160;28;20075;-28
2021/07/25 18:26:32;;;;;;;0.30;0.00;;;;;;;;;;10465137;28;20379;-29
2021/07/25 18:31:36;;;;;;;0.00;0.00;;;;;;;;;;10450687;28;20478;-27
2021/07/25 18:36:39;;;;;;;0.52;0.10;;;;;;;;;;10456967;28;20045;-29
2021/07/25 18:41:42;;;;;;;0.00;0.00;;;;;;;;;;10457591;28;20535;-29
2021/07/25 18:46:46;;;;;;;0.30;0.00;;;;;;;;;;10462490;28;20075;-29
2021/07/25 18:51:48;;;;;;;0.00;0.00;;;;;;;;;;10454256;28;20044;-29
2021/07/25 18:56:51;;;;;;;0.00;0.00;;;;;;;;;;10462472;28;20056;-31
2021/07/25 19:01:55;;;;;;;0.05;0.00;;;;;;;;;;10448104;28;20037;-30
2021/07/25 19:06:58;;;;;;;0.00;0.00;;;;;;;;;;10465216;28;20063;-30
2021/07/25 19:12:00;;;;;;;0.00;0.00;;;;;;;;;;10440183;28;20045;-30
2021/07/25 19:17:06;;;;;;;0.00;0.00;;;;;;;;;;10442688;28;20052;-29
2021/07/25 19:22:09;;;;;;;0.00;0.00;;;;;;;;;;10440159;28;20418;-29
2021/07/25 19:27:12;;;;;;;0.00;0.00;;;;;;;;;;10455080;28;20048;-29
2021/07/25 19:32:16;;;;;;;0.00;0.00;;;;;;;;;;10440344;28;20048;-31
2021/07/25 19:37:18;;;;;;;0.00;0.00;;;;;;;;;;10423330;28;20050;-29
2021/07/25 19:42:21;;;;;;;0.00;0.00;;;;;;;;;;10435358;28;20075;-29
2021/07/25 19:47:25;;;;;;;0.00;0.00;;;;;;;;;;10443212;28;20041;-29
2021/07/25 19:52:31;;;;;;;0.10;0.00;;;;;;;;;;10445398;28;20573;-29
2021/07/25 19:57:33;;;;;;;0.00;0.00;;;;;;;;;;10441659;28;20412;-29
2021/07/25 20:02:38;;;;;;;0.00;0.00;;;;;;;;;;10449660;28;20048;-29
2021/07/25 20:07:41;;;;;;;0.00;0.00;;;;;;;;;;10439592;28;20049;-30
2021/07/25 20:12:43;;;;;;;0.03;0.00;;;;;;;;;;10439228;28;20040;-29
2021/07/25 20:17:48;;;;;;;0.00;0.00;;;;;;;;;;10447628;28;20041;-29
2021/07/25 20:22:50;;;;;;;0.00;0.00;;;;;;;;;;10447528;28;20056;-31
2021/07/25 20:27:53;;;;;;;0.00;0.00;;;;;;;;;;10441121;28;20053;-29
2021/07/25 20:32:57;;;;;;;0.00;0.00;;;;;;;;;;10436361;28;20041;-30
2021/07/25 20:38:00;;;;;;;0.00;0.00;;;;;;;;;;10429024;28;20057;-31
2021/07/25 20:43:11;;;;;;;0.10;0.00;;;;;;;;;;10425301;28;20119;-31
2021/07/25 20:48:20;;;;;;;0.10;0.00;;;;;;;;;;10425801;28;20087;-29
2021/07/25 20:53:24;;;;;;;0.22;0.00;;;;;;;;;;10433109;28;20123;-29
2021/07/25 20:58:27;;;;;;;0.00;0.00;;;;;;;;;;10436124;28;20052;-29
2021/07/25 21:03:31;;;;;;;0.00;0.00;;;;;;;;;;10443404;28;20051;-29
2021/07/25 21:08:38;;;;;;;0.00;0.00;;;;;;;;;;10479604;28;20049;-29
2021/07/25 21:13:41;;;;;;;0.00;0.00;;;;;;;;;;10472053;28;20048;-30
2021/07/25 21:18:45;;;;;;;0.00;0.00;;;;;;;;;;10470454;28;20055;-29
2021/07/25 21:23:48;;;;;;;0.00;0.00;;;;;;;;;;10463518;28;20052;-28
2021/07/25 21:28:50;;;;;;;0.00;0.00;;;;;;;;;;10474450;28;20060;-30
2021/07/25 21:33:54;;;;;;;0.00;0.00;;;;;;;;;;10463672;28;20052;-29
2021/07/25 21:38:57;;;;;;;1.63;0.30;;;;;;;;;;10462908;28;20045;-29
2021/07/25 21:44:00;;;;;;;2.15;0.35;;;;;;;;;;10457632;28;20049;-29
2021/07/25 21:49:04;;;;;;;1.00;0.20;;;;;;;;;;10462252;28;20047;-29
2021/07/25 21:54:06;;;;;;;0.30;0.10;;;;;;;;;;10451225;28;20044;-29
2021/07/25 21:59:09;;;;;;;0.22;0.10;;;;;;;;;;10456844;28;20399;-30
2021/07/25 22:09:48;;;;;;;0.00;0.00;;;;;;;;;;10396359;28;20046;-29
2021/07/25 22:14:51;;;;;;;0.95;0.10;;;;;;;;;;10436381;28;20056;-29
2021/07/25 22:19:55;;;;;;;0.08;0.00;;;;;;;;;;10455952;28;20052;-29
2021/07/25 22:24:58;;;;;;;0.00;0.00;;;;;;;;;;10450870;28;20060;-29
2021/07/25 22:30:00;;;;;;;0.10;0.00;;;;;;;;;;10452368;28;20055;-29
2021/07/25 22:35:05;;;;;;;0.00;0.00;;;;;;;;;;10453979;28;20654;-29
2021/07/25 22:40:08;;;;;;;0.00;0.00;;;;;;;;;;10453134;28;20059;-30
2021/07/25 22:45:11;;;;;;;0.00;0.00;;;;;;;;;;10449616;28;20056;-29
2021/07/25 22:50:16;;;;;;;0.00;0.00;;;;;;;;;;10448580;28;20041;-29
2021/07/25 22:55:18;;;;;;;0.00;0.00;;;;;;;;;;10451176;28;20048;-29
2021/07/25 23:00:21;;;;;;;0.00;0.00;;;;;;;;;;10441614;28;20063;-29
2021/07/25 23:05:25;;;;;;;0.25;0.00;;;;;;;;;;10449054;28;20044;-28
2021/07/25 23:10:28;;;;;;;0.00;0.00;;;;;;;;;;10442667;28;20040;-29
2021/07/25 23:15:30;;;;;;;0.00;0.00;;;;;;;;;;10442928;28;20041;-30
2021/07/25 23:20:34;;;;;;;0.00;0.00;;;;;;;;;;10442383;28;20846;-28
2021/07/25 23:25:38;;;;;;;0.00;0.00;;;;;;;;;;10443403;28;20045;-29
2021/07/25 23:30:41;;;;;;;0.00;0.00;;;;;;;;;;10430578;28;20473;-28
2021/07/25 23:35:46;;;;;;;0.30;0.00;;;;;;;;;;10440569;28;20048;-29
2021/07/25 23:40:48;;;;;;;0.00;0.00;;;;;;;;;;10437127;28;20517;-30
2021/07/25 23:45:52;;;;;;;0.00;0.00;;;;;;;;;;10457307;28;20512;-29
2021/07/25 23:50:56;;;;;;;0.00;0.00;;;;;;;;;;10459012;28;20063;-29
2021/07/25 23:55:59;;;;;;;0.00;0.00;;;;;;;;;;10448408;28;20044;-29
